Time;durP1;ratioP1;P1;durP2;ratioP2;P2;SDS_P1;SDS_P2;PMS_P1;PMS_P2;Temp;Humidity;BMP_temperature;BMP_pressure;BME280_temperature;BME280_humidity;BME280_pressure;Samples;Min_cycle;Max_cycle;Signal;HPM_P1;HPM_P2
2022/05/20 00:02:09;;;;;;;2.25;1.52;;;22.20;58.40;;;;;;5091871;28;20147;-74
2022/05/20 00:04:36;;;;;;;2.17;1.50;;;22.10;58.40;;;;;;5091604;28;20070;-74
2022/05/20 00:07:03;;;;;;;1.95;1.48;;;22.10;58.40;;;;;;5091531;28;20092;-74
2022/05/20 00:09:29;;;;;;;2.65;1.50;;;22.10;58.30;;;;;;5091387;28;20063;-74
2022/05/20 00:11:56;;;;;;;2.55;1.70;;;22.10;58.40;;;;;;5089019;28;20052;-74
2022/05/20 00:14:23;;;;;;;2.75;1.60;;;22.10;58.30;;;;;;5071335;28;20083;-73
2022/05/20 00:16:50;;;;;;;1.90;1.35;;;22.10;58.40;;;;;;5071414;28;20131;-74
2022/05/20 00:19:18;;;;;;;1.75;1.40;;;22.10;61.00;;;;;;5071211;28;20053;-74
2022/05/20 00:21:45;;;;;;;1.40;1.30;;;22.10;58.40;;;;;;5072430;28;20044;-74
2022/05/20 00:24:12;;;;;;;2.45;1.33;;;22.10;58.30;;;;;;5070903;28;20048;-74
2022/05/20 00:26:38;;;;;;;2.33;1.42;;;22.10;58.30;;;;;;5071195;28;20052;-74
2022/05/20 00:29:05;;;;;;;2.22;1.65;;;22.10;58.30;;;;;;5084357;28;20047;-74
2022/05/20 00:31:32;;;;;;;2.15;1.42;;;22.10;58.30;;;;;;5090905;28;20051;-74
2022/05/20 00:33:58;;;;;;;3.03;1.42;;;22.10;58.30;;;;;;5091255;28;20055;-74
2022/05/20 00:36:26;;;;;;;1.55;1.30;;;22.10;62.10;;;;;;5091172;28;20048;-74
2022/05/20 00:38:53;;;;;;;1.70;1.40;;;22.00;58.20;;;;;;5091012;28;20150;-72
2022/05/20 00:41:20;;;;;;;1.50;1.30;;;22.00;58.20;;;;;;5092312;28;20085;-73
2022/05/20 00:43:48;;;;;;;1.75;1.35;;;22.00;58.20;;;;;;5091155;28;20127;-73
2022/05/20 00:46:16;;;;;;;3.67;1.50;;;22.00;58.10;;;;;;5075576;28;20052;-72
2022/05/20 00:48:43;;;;;;;1.55;1.23;;;22.00;58.10;;;;;;5091068;28;20055;-73
2022/05/20 00:51:12;;;;;;;1.67;1.40;;;22.00;58.10;;;;;;5090645;28;20055;-72
2022/05/20 00:53:41;;;;;;;1.95;1.58;;;22.00;58.10;;;;;;5091207;28;20051;-73
2022/05/20 00:56:08;;;;;;;2.47;1.38;;;22.00;61.20;;;;;;5090988;28;20048;-72
2022/05/20 00:58:34;;;;;;;1.30;1.20;;;22.00;58.10;;;;;;5091068;28;20051;-73
2022/05/20 01:01:02;;;;;;;2.40;1.50;;;22.00;58.10;;;;;;5089686;28;20428;-73
2022/05/20 01:03:29;;;;;;;1.67;1.30;;;22.00;58.10;;;;;;5091836;28;20048;-72
2022/05/20 01:05:56;;;;;;;1.70;1.35;;;21.90;58.10;;;;;;5090659;28;20051;-72
2022/05/20 01:08:24;;;;;;;1.40;1.30;;;21.90;58.10;;;;;;5090529;28;20056;-73
2022/05/20 01:10:52;;;;;;;1.90;1.27;;;22.00;58.10;;;;;;5088689;28;20058;-73
2022/05/20 01:13:19;;;;;;;2.97;1.50;;;22.00;58.10;;;;;;5090374;28;20126;-73
2022/05/20 01:15:46;;;;;;;1.67;1.45;;;21.90;58.10;;;;;;5090558;28;20048;-72
2022/05/20 01:18:12;;;;;;;2.20;1.23;;;22.00;59.40;;;;;;5077379;28;20127;-72
2022/05/20 01:20:44;;;;;;;2.70;1.52;;;21.90;58.10;;;;;;5071289;28;20059;-73
2022/05/20 01:23:13;;;;;;;1.77;1.30;;;20.60;60.50;;;;;;5070667;28;20143;-73
2022/05/20 01:25:41;;;;;;;1.60;1.20;;;22.10;61.30;;;;;;5071453;28;20049;-72
2022/05/20 01:28:08;;;;;;;1.88;1.30;;;21.90;58.10;;;;;;5070265;28;20132;-73
2022/05/20 01:30:35;;;;;;;1.60;1.35;;;21.80;61.10;;;;;;5070045;28;20052;-72
2022/05/20 01:33:03;;;;;;;1.63;1.20;;;21.80;58.00;;;;;;5070121;28;20048;-73
2022/05/20 01:35:36;;;;;;;2.25;1.52;;;21.80;58.00;;;;;;5104839;28;20059;-72
2022/05/20 01:38:03;;;;;;;2.80;1.30;;;21.80;58.00;;;;;;5070503;28;20420;-74
2022/05/20 01:40:43;;;;;;;1.73;1.25;;;21.80;58.00;;;;;;5069827;28;20413;-72
2022/05/20 01:43:13;;;;;;;1.17;1.05;;;21.90;57.90;;;;;;5070417;28;20140;-72
2022/05/20 01:45:43;;;;;;;2.00;1.40;;;21.80;58.00;;;;;;5070004;28;20044;-73
2022/05/20 01:48:13;;;;;;;2.25;1.60;;;22.20;59.40;;;;;;5070120;28;20523;-72
2022/05/20 01:50:42;;;;;;;2.22;1.30;;;21.80;58.00;;;;;;5072476;28;20472;-73
2022/05/20 01:53:11;;;;;;;1.48;1.17;;;21.80;58.00;;;;;;5073778;28;20091;-73
2022/05/20 01:55:42;;;;;;;1.20;1.10;;;21.80;57.90;;;;;;5073780;28;20048;-73
2022/05/20 01:58:11;;;;;;;2.28;1.17;;;21.70;57.40;;;;;;5074995;28;20056;-72
2022/05/20 02:00:39;;;;;;;1.63;1.00;;;21.70;57.90;;;;;;5073535;28;20424;-73
2022/05/20 02:03:08;;;;;;;1.60;1.23;;;21.80;57.90;;;;;;5073931;28;20585;-73
2022/05/20 02:05:37;;;;;;;1.67;1.27;;;21.70;57.90;;;;;;5073509;28;20045;-73
2022/05/20 02:08:06;;;;;;;1.42;1.20;;;21.70;57.90;;;;;;5094054;28;20098;-73
2022/05/20 02:10:35;;;;;;;1.45;1.23;;;21.70;57.90;;;;;;5093573;28;20412;-73
2022/05/20 02:13:05;;;;;;;1.75;1.38;;;21.70;57.90;;;;;;5128172;27;20404;-73
2022/05/20 02:15:33;;;;;;;3.58;1.30;;;21.80;61.50;;;;;;5094162;28;20078;-72
2022/05/20 02:18:01;;;;;;;1.55;1.10;;;22.90;61.50;;;;;;5076073;28;20049;-72
2022/05/20 02:20:30;;;;;;;1.65;1.17;;;22.60;60.80;;;;;;5073107;28;20063;-72
2022/05/20 02:23:00;;;;;;;1.77;1.20;;;21.70;57.90;;;;;;5074985;28;20080;-72
2022/05/20 02:25:29;;;;;;;1.30;1.00;;;21.70;57.80;;;;;;5073426;28;20049;-72
2022/05/20 02:27:58;;;;;;;2.33;1.48;;;21.70;57.90;;;;;;5073576;28;20056;-72
2022/05/20 02:30:29;;;;;;;2.55;1.33;;;21.60;57.80;;;;;;5074195;28;20056;-73
2022/05/20 02:32:58;;;;;;;1.52;1.30;;;21.50;60.40;;;;;;5073399;28;20080;-72
2022/05/20 02:35:25;;;;;;;1.38;1.10;;;21.60;57.90;;;;;;5074571;28;20507;-73
2022/05/20 02:37:51;;;;;;;2.20;1.17;;;21.60;57.80;;;;;;5073105;28;20058;-72
2022/05/20 02:40:19;;;;;;;1.77;1.20;;;21.60;61.20;;;;;;5073049;28;20060;-72
2022/05/20 02:42:45;;;;;;;2.08;1.23;;;21.60;57.80;;;;;;5072866;28;20057;-72
2022/05/20 02:45:12;;;;;;;2.22;1.10;;;21.60;57.80;;;;;;5073096;28;20478;-73
2022/05/20 02:47:40;;;;;;;1.60;1.13;;;21.60;57.90;;;;;;5075747;28;20067;-73
2022/05/20 02:50:09;;;;;;;1.52;1.30;;;21.60;57.80;;;;;;5072816;28;20052;-72
2022/05/20 02:52:37;;;;;;;1.30;1.13;;;21.50;57.80;;;;;;5073930;28;20044;-72
2022/05/20 02:55:04;;;;;;;2.03;1.20;;;21.50;57.80;;;;;;5072993;28;20051;-73
2022/05/20 02:57:31;;;;;;;1.70;1.20;;;21.60;57.90;;;;;;5072986;28;20061;-73
2022/05/20 03:05:27;;;;;;;1.45;1.20;;;21.50;58.20;;;;;;5126890;27;20114;-72
2022/05/20 03:07:54;;;;;;;1.50;1.25;;;21.50;57.90;;;;;;5126938;27;20135;-72
2022/05/20 03:10:21;;;;;;;2.08;1.20;;;21.50;57.80;;;;;;5092667;28;20058;-72
2022/05/20 03:12:48;;;;;;;1.42;1.20;;;21.50;57.80;;;;;;5092979;28;20058;-72
2022/05/20 03:15:16;;;;;;;1.70;1.10;;;21.40;57.70;;;;;;5092885;28;20127;-72
2022/05/20 03:17:45;;;;;;;1.95;1.13;;;21.50;61.40;;;;;;5092464;28;20062;-73
2022/05/20 03:20:12;;;;;;;1.73;1.30;;;21.40;57.70;;;;;;5073906;28;20056;-73
2022/05/20 03:22:39;;;;;;;1.23;1.13;;;21.40;57.80;;;;;;5072507;28;20101;-72
2022/05/20 03:25:06;;;;;;;1.40;1.13;;;21.40;57.70;;;;;;5072317;28;20095;-73
2022/05/20 03:27:33;;;;;;;1.30;1.13;;;21.40;57.70;;;;;;5072417;28;20139;-73
2022/05/20 03:30:00;;;;;;;1.85;1.30;;;21.40;61.90;;;;;;5073169;28;20135;-74
2022/05/20 03:32:26;;;;;;;1.75;1.27;;;21.40;57.70;;;;;;5073200;28;20055;-73
2022/05/20 03:34:55;;;;;;;1.70;1.20;;;21.40;57.70;;;;;;5074726;28;20044;-72
2022/05/20 03:37:22;;;;;;;1.10;1.00;;;21.20;61.30;;;;;;5072927;28;20149;-72
2022/05/20 03:39:48;;;;;;;1.30;1.20;;;21.40;57.70;;;;;;5071895;28;20079;-73
2022/05/20 03:42:15;;;;;;;1.88;1.23;;;21.40;57.70;;;;;;5073274;28;20048;-73
2022/05/20 03:44:42;;;;;;;1.55;1.10;;;21.40;57.70;;;;;;5072245;28;20048;-73
2022/05/20 03:47:09;;;;;;;2.13;1.30;;;21.40;57.70;;;;;;5071465;28;20072;-73
2022/05/20 03:49:36;;;;;;;1.55;1.20;;;21.30;57.60;;;;;;5072750;28;20128;-73
2022/05/20 03:52:04;;;;;;;1.42;1.10;;;21.30;57.60;;;;;;5085364;28;20051;-73
2022/05/20 03:54:32;;;;;;;2.10;1.27;;;21.40;57.60;;;;;;5093106;28;20044;-73
2022/05/20 03:56:59;;;;;;;1.83;1.20;;;21.30;57.60;;;;;;5091870;28;20484;-72
2022/05/20 03:59:26;;;;;;;2.28;1.30;;;21.40;60.80;;;;;;5091484;28;20060;-72
2022/05/20 04:01:58;;;;;;;2.03;1.30;;;21.30;57.70;;;;;;5126073;27;20139;-72
2022/05/20 04:04:26;;;;;;;1.70;1.17;;;21.10;61.20;;;;;;5091948;28;20052;-72
2022/05/20 04:06:52;;;;;;;1.42;1.10;;;21.30;57.60;;;;;;5088031;28;20071;-72
2022/05/20 04:09:21;;;;;;;1.65;1.20;;;21.30;57.60;;;;;;5071401;28;20052;-73
2022/05/20 04:11:49;;;;;;;2.17;1.20;;;21.30;57.60;;;;;;5071415;28;20060;-72
2022/05/20 04:14:16;;;;;;;1.50;1.35;;;21.30;57.60;;;;;;5071041;28;20101;-72
2022/05/20 04:16:42;;;;;;;1.58;1.10;;;20.40;60.30;;;;;;5072860;28;20048;-72
2022/05/20 04:19:09;;;;;;;1.60;1.17;;;21.30;57.60;;;;;;5071006;28;20055;-73
2022/05/20 04:21:36;;;;;;;1.30;1.20;;;21.20;57.50;;;;;;5071089;28;20058;-72
2022/05/20 04:24:03;;;;;;;1.35;1.10;;;21.30;57.60;;;;;;5072538;28;20056;-72
2022/05/20 04:26:31;;;;;;;1.60;1.20;;;21.20;57.60;;;;;;5104712;28;20063;-73
2022/05/20 04:28:57;;;;;;;1.33;1.10;;;21.20;57.60;;;;;;5071197;28;20568;-72
2022/05/20 04:31:24;;;;;;;1.33;1.17;;;21.20;57.50;;;;;;5070712;28;20049;-72
2022/05/20 04:33:51;;;;;;;2.28;1.10;;;20.40;60.00;;;;;;5070913;28;20400;-72
2022/05/20 04:36:17;;;;;;;1.45;1.10;;;21.20;57.60;;;;;;5072002;28;20062;-74
2022/05/20 04:38:44;;;;;;;1.45;1.15;;;21.20;57.60;;;;;;5070910;28;20090;-73
2022/05/20 04:46:59;;;;;;;2.38;1.20;;;21.20;57.50;;;;;;5104673;28;20131;-72
2022/05/20 04:49:25;;;;;;;1.38;1.15;;;21.20;57.50;;;;;;5070561;28;20524;-72
2022/05/20 04:51:52;;;;;;;1.75;1.10;;;21.20;60.40;;;;;;5070818;28;20380;-73
2022/05/20 04:57:03;;;;;;;1.55;1.20;;;21.20;57.50;;;;;;5118231;27;20048;-73
2022/05/20 04:59:34;;;;;;;1.52;1.20;;;21.20;57.50;;;;;;5090729;28;20058;-74
2022/05/20 05:02:01;;;;;;;1.15;1.05;;;21.20;57.50;;;;;;5090902;28;20052;-73
2022/05/20 05:04:27;;;;;;;1.30;1.10;;;21.20;57.40;;;;;;5090853;28;20138;-73
2022/05/20 05:06:54;;;;;;;1.33;1.13;;;21.20;57.40;;;;;;5090673;28;20044;-72
2022/05/20 05:09:21;;;;;;;2.00;1.13;;;21.20;57.40;;;;;;5090756;28;20051;-73
2022/05/20 05:11:48;;;;;;;2.33;1.20;;;21.20;57.40;;;;;;5090435;28;20138;-72
2022/05/20 05:14:15;;;;;;;1.20;1.10;;;21.20;57.40;;;;;;5090538;28;20151;-73
2022/05/20 05:16:43;;;;;;;1.30;1.10;;;21.80;61.70;;;;;;5090559;28;20080;-73
2022/05/20 05:19:10;;;;;;;1.55;1.23;;;21.20;58.00;;;;;;5090451;28;20386;-72
2022/05/20 05:21:36;;;;;;;1.80;1.20;;;21.20;57.40;;;;;;5090422;28;20404;-72
2022/05/20 05:24:03;;;;;;;2.00;1.10;;;21.20;57.40;;;;;;5090779;28;20131;-73
2022/05/20 05:26:31;;;;;;;1.50;1.10;;;21.30;60.60;;;;;;5093548;28;20047;-73
2022/05/20 05:28:58;;;;;;;1.13;1.02;;;21.10;57.30;;;;;;5086104;28;20049;-72
2022/05/20 05:31:26;;;;;;;2.00;1.27;;;21.20;57.30;;;;;;5074146;28;20405;-73
2022/05/20 05:33:57;;;;;;;1.77;1.30;;;21.00;59.80;;;;;;5075178;28;20063;-73
2022/05/20 05:36:24;;;;;;;2.28;1.25;;;21.20;57.50;;;;;;5075286;28;20123;-72
2022/05/20 05:38:52;;;;;;;1.52;1.30;;;21.20;57.30;;;;;;5075326;28;20092;-73
2022/05/20 05:41:19;;;;;;;2.40;1.40;;;21.20;57.30;;;;;;5075578;28;20057;-73
2022/05/20 05:43:46;;;;;;;4.10;1.45;;;21.20;57.20;;;;;;5075392;28;20053;-71
2022/05/20 05:46:13;;;;;;;2.55;1.33;;;20.60;60.50;;;;;;5127028;27;20047;-72
2022/05/20 05:48:40;;;;;;;2.08;1.30;;;21.30;57.10;;;;;;5104742;28;20049;-72
2022/05/20 05:51:11;;;;;;;1.55;1.20;;;21.50;58.80;;;;;;5109628;28;20078;-72
2022/05/20 05:53:41;;;;;;;1.80;1.30;;;20.80;60.80;;;;;;5105634;28;20044;-71
2022/05/20 05:56:10;;;;;;;2.00;1.35;;;21.40;59.90;;;;;;5105529;28;20080;-72
2022/05/20 05:58:39;;;;;;;2.10;1.38;;;21.60;56.90;;;;;;5105332;28;20051;-72
2022/05/20 06:01:06;;;;;;;1.77;1.30;;;21.70;56.80;;;;;;5103022;28;20112;-72
2022/05/20 06:03:33;;;;;;;1.40;1.10;;;21.70;56.60;;;;;;5129252;27;20079;-72
2022/05/20 06:06:05;;;;;;;1.75;1.40;;;21.80;56.60;;;;;;5103640;28;20043;-72
2022/05/20 06:08:33;;;;;;;2.22;1.40;;;21.60;57.30;;;;;;5094486;28;20044;-71
2022/05/20 06:11:00;;;;;;;2.00;1.40;;;22.00;56.90;;;;;;5095691;28;20090;-72
2022/05/20 06:13:29;;;;;;;3.50;1.55;;;21.90;56.00;;;;;;5094508;28;20448;-72
2022/05/20 06:15:56;;;;;;;2.38;1.63;;;21.80;59.20;;;;;;5092902;28;20135;-72
2022/05/20 06:18:23;;;;;;;2.42;1.58;;;21.90;57.50;;;;;;5093249;28;20052;-72
2022/05/20 06:20:50;;;;;;;2.10;1.48;;;22.00;55.80;;;;;;5093403;28;20511;-72
2022/05/20 06:23:16;;;;;;;1.50;1.33;;;22.00;55.80;;;;;;5095020;28;20055;-73
2022/05/20 06:25:44;;;;;;;2.40;1.42;;;22.10;55.70;;;;;;5094076;28;20056;-72
2022/05/20 06:28:12;;;;;;;2.53;1.80;;;22.50;56.90;;;;;;5093508;28;20051;-72
2022/05/20 06:30:39;;;;;;;3.47;1.35;;;22.30;55.40;;;;;;5093442;28;20502;-72
2022/05/20 06:33:06;;;;;;;3.42;1.40;;;22.40;55.20;;;;;;5125860;27;20090;-72
2022/05/20 06:41:03;;;;;;;9.77;1.73;;;22.60;54.80;;;;;;5093831;28;20040;-74
2022/05/20 06:43:29;;;;;;;2.38;1.17;;;22.60;54.70;;;;;;5092865;28;20515;-75
2022/05/20 06:45:57;;;;;;;4.70;1.30;;;22.60;54.70;;;;;;5093309;28;20538;-74
2022/05/20 06:48:24;;;;;;;1.92;1.30;;;22.30;56.10;;;;;;5092603;28;20044;-74
2022/05/20 06:50:51;;;;;;;3.85;1.60;;;22.60;54.70;;;;;;5092111;28;20052;-74
2022/05/20 06:53:18;;;;;;;1.77;1.20;;;22.60;54.70;;;;;;5092524;28;20056;-74
2022/05/20 06:55:44;;;;;;;4.53;1.60;;;22.70;54.70;;;;;;5094255;28;20052;-74
2022/05/20 06:58:12;;;;;;;3.22;1.65;;;22.80;55.60;;;;;;5093332;28;20048;-74
2022/05/20 07:00:39;;;;;;;3.25;1.63;;;22.90;59.00;;;;;;5092651;28;20048;-74
2022/05/20 07:03:06;;;;;;;3.28;1.60;;;22.90;54.80;;;;;;5077037;28;20044;-74
2022/05/20 07:05:34;;;;;;;3.70;1.50;;;22.90;54.60;;;;;;5081662;28;20396;-74
2022/05/20 07:08:00;;;;;;;4.00;1.73;;;23.00;54.60;;;;;;5085828;28;20496;-74
2022/05/20 07:10:27;;;;;;;3.20;1.50;;;23.00;54.40;;;;;;5093813;28;20051;-75
2022/05/20 07:12:54;;;;;;;3.80;1.65;;;23.10;54.40;;;;;;5092932;28;20051;-75
2022/05/20 07:15:22;;;;;;;6.30;1.67;;;23.10;54.30;;;;;;5094113;28;20378;-74
2022/05/20 07:17:49;;;;;;;2.33;1.40;;;23.10;54.20;;;;;;5091950;28;20040;-74
2022/05/20 07:20:16;;;;;;;3.78;1.50;;;23.20;54.20;;;;;;5100422;28;20056;-74
2022/05/20 07:22:43;;;;;;;3.08;1.65;;;23.30;54.10;;;;;;5103396;28;20539;-74
2022/05/20 07:25:10;;;;;;;2.58;1.52;;;23.30;54.10;;;;;;5102061;28;20135;-74
2022/05/20 07:27:37;;;;;;;2.67;1.73;;;23.60;57.60;;;;;;5101427;28;20044;-74
2022/05/20 07:30:04;;;;;;;3.13;1.52;;;23.40;53.80;;;;;;5101244;28;20043;-74
2022/05/20 07:32:32;;;;;;;4.18;1.60;;;23.50;54.30;;;;;;5096071;28;20074;-73
2022/05/20 07:34:59;;;;;;;4.90;1.70;;;23.50;53.60;;;;;;5091790;28;20126;-73
2022/05/20 07:37:25;;;;;;;3.17;1.50;;;23.50;53.50;;;;;;5092499;28;20055;-73
2022/05/20 07:39:52;;;;;;;4.63;1.77;;;23.60;53.40;;;;;;5090926;28;20523;-74
2022/05/20 07:42:19;;;;;;;8.63;1.75;;;23.60;53.30;;;;;;5072037;28;20058;-74
2022/05/20 07:44:45;;;;;;;4.65;1.63;;;23.60;53.20;;;;;;5073134;28;20083;-74
2022/05/20 07:47:12;;;;;;;5.05;2.13;;;23.70;56.90;;;;;;5071618;28;20054;-74
2022/05/20 07:49:40;;;;;;;6.57;1.77;;;23.50;53.10;;;;;;5071102;28;20062;-73
2022/05/20 07:52:07;;;;;;;5.47;1.92;;;23.60;53.10;;;;;;5125969;27;20055;-73
2022/05/20 07:54:37;;;;;;;6.68;1.40;;;23.60;53.10;;;;;;5091415;28;20054;-73
2022/05/20 07:57:07;;;;;;;3.55;1.50;;;23.60;53.10;;;;;;5091989;28;20063;-74
2022/05/20 07:59:41;;;;;;;3.85;1.42;;;23.50;53.10;;;;;;5092000;28;20135;-74
2022/05/20 08:02:08;;;;;;;2.73;1.40;;;23.50;53.10;;;;;;5091896;28;20443;-74
2022/05/20 08:04:57;;;;;;;2.15;1.50;;;23.50;53.10;;;;;;5126207;27;20048;-75
2022/05/20 08:07:27;;;;;;;4.53;1.77;;;23.60;53.30;;;;;;5074848;28;20040;-74
2022/05/20 08:09:54;;;;;;;6.25;1.60;;;23.60;53.20;;;;;;5090071;28;20046;-74
2022/05/20 08:12:21;;;;;;;3.42;1.50;;;23.60;53.20;;;;;;5091863;28;20090;-74
2022/05/20 08:14:47;;;;;;;4.72;1.58;;;23.60;53.20;;;;;;5091379;28;20062;-73
2022/05/20 08:17:14;;;;;;;5.07;1.60;;;23.60;53.20;;;;;;5091813;28;20127;-75
2022/05/20 08:19:44;;;;;;;6.30;1.58;;;23.70;53.20;;;;;;5092412;28;20050;-74
2022/05/20 08:22:11;;;;;;;8.40;1.52;;;24.70;56.40;;;;;;5091796;28;20088;-74
2022/05/20 08:24:39;;;;;;;5.18;1.95;;;23.80;53.20;;;;;;5091215;28;20059;-74
2022/05/20 08:27:06;;;;;;;6.10;1.80;;;23.80;53.10;;;;;;5081119;28;20055;-74
2022/05/20 08:29:33;;;;;;;5.97;1.70;;;23.80;53.10;;;;;;5078586;28;20056;-74
2022/05/20 08:32:00;;;;;;;6.35;1.90;;;23.80;53.10;;;;;;5096080;28;20055;-74
2022/05/20 08:34:27;;;;;;;5.20;1.80;;;23.80;53.10;;;;;;5099254;28;20044;-74
2022/05/20 08:36:54;;;;;;;3.50;1.50;;;23.80;53.10;;;;;;5095324;28;20054;-74
2022/05/20 08:39:20;;;;;;;7.13;1.90;;;23.80;53.10;;;;;;5083832;28;20138;-73
2022/05/20 08:41:50;;;;;;;4.93;1.88;;;23.80;53.10;;;;;;5082822;28;20397;-73
2022/05/20 08:44:18;;;;;;;3.85;1.60;;;23.80;53.00;;;;;;5085916;28;20052;-74
2022/05/20 08:46:47;;;;;;;4.75;1.70;;;23.70;53.00;;;;;;5088603;28;20048;-73
2022/05/20 08:49:15;;;;;;;4.28;1.70;;;23.70;53.00;;;;;;5088188;28;20083;-73
2022/05/20 08:51:44;;;;;;;3.67;1.73;;;23.60;53.00;;;;;;5082035;28;20124;-73
2022/05/20 08:54:10;;;;;;;6.10;1.58;;;23.60;53.10;;;;;;5079251;28;20427;-73
2022/05/20 08:56:38;;;;;;;3.25;1.52;;;23.60;53.10;;;;;;5089495;28;20062;-73
2022/05/20 08:59:08;;;;;;;3.42;1.42;;;23.60;53.00;;;;;;5089553;28;20087;-73
2022/05/20 09:01:36;;;;;;;5.43;1.38;;;23.60;53.10;;;;;;5091433;28;20062;-73
2022/05/20 09:04:03;;;;;;;3.55;1.60;;;23.60;53.10;;;;;;5089957;28;20058;-73
2022/05/20 09:06:29;;;;;;;5.68;1.98;;;23.60;53.20;;;;;;5107183;28;20079;-73
2022/05/20 09:09:04;;;;;;;6.50;1.70;;;23.60;53.20;;;;;;5070334;28;20496;-73
2022/05/20 09:11:30;;;;;;;4.10;1.77;;;23.60;53.30;;;;;;5070129;28;20052;-73
2022/05/20 09:16:59;;;;;;;3.83;1.50;;;23.60;53.30;;;;;;5104235;28;20053;-73
2022/05/20 09:19:28;;;;;;;3.00;1.48;;;23.60;53.30;;;;;;5070227;28;20147;-73
2022/05/20 09:22:01;;;;;;;4.93;1.60;;;23.60;53.30;;;;;;5124085;28;20063;-73
2022/05/20 09:24:28;;;;;;;3.47;1.50;;;23.70;53.20;;;;;;5090521;28;20529;-73
2022/05/20 09:27:01;;;;;;;2.45;1.40;;;23.70;53.20;;;;;;5090496;28;20058;-73
2022/05/20 09:29:31;;;;;;;4.65;1.63;;;23.70;53.20;;;;;;5090245;28;20131;-73
2022/05/20 09:32:00;;;;;;;6.40;1.40;;;23.70;53.70;;;;;;5124299;28;20059;-73
2022/05/20 09:34:31;;;;;;;2.67;1.40;;;23.80;53.00;;;;;;5092037;28;20092;-73
2022/05/20 09:36:59;;;;;;;5.10;1.55;;;23.80;53.00;;;;;;5079599;28;20063;-73
2022/05/20 09:39:27;;;;;;;3.88;1.65;;;23.50;56.10;;;;;;5103908;28;20072;-73
2022/05/20 09:41:55;;;;;;;2.85;1.52;;;23.80;52.90;;;;;;5069791;28;20063;-73
2022/05/20 09:44:24;;;;;;;2.17;1.33;;;23.70;56.00;;;;;;5070203;28;20076;-73
2022/05/20 09:46:55;;;;;;;4.15;1.45;;;23.80;52.90;;;;;;5070091;28;20056;-73
2022/05/20 09:49:38;;;;;;;3.30;1.30;;;23.80;55.50;;;;;;5070264;28;20131;-73
2022/05/20 09:52:05;;;;;;;2.63;1.50;;;23.80;52.90;;;;;;5073380;28;20059;-73
2022/05/20 09:54:33;;;;;;;3.92;1.25;;;23.80;52.90;;;;;;5090376;28;20145;-73
2022/05/20 09:57:05;;;;;;;3.08;1.40;;;23.80;53.00;;;;;;5091571;28;20070;-73
2022/05/20 09:59:45;;;;;;;4.88;1.67;;;23.80;53.00;;;;;;5089667;28;20058;-73
2022/05/20 10:02:20;;;;;;;7.78;1.80;;;23.80;53.10;;;;;;5090168;28;20416;-73
2022/05/20 10:04:53;;;;;;;2.95;1.60;;;23.80;53.20;;;;;;5091242;28;20047;-73
2022/05/20 10:07:30;;;;;;;3.72;1.70;;;23.80;53.20;;;;;;5089967;28;20094;-73
2022/05/20 10:09:59;;;;;;;3.90;1.40;;;23.70;53.00;;;;;;5123216;28;20058;-73
2022/05/20 10:12:28;;;;;;;3.03;1.30;;;23.70;53.10;;;;;;5092660;28;20056;-73
2022/05/20 10:14:57;;;;;;;3.00;1.58;;;23.70;53.20;;;;;;5094033;28;20377;-73
2022/05/20 10:17:40;;;;;;;2.35;1.50;;;23.70;53.20;;;;;;5093800;28;20097;-74
2022/05/20 10:20:12;;;;;;;3.33;1.48;;;23.70;53.30;;;;;;5093624;28;20432;-74
2022/05/20 10:22:47;;;;;;;4.47;1.83;;;24.90;56.30;;;;;;5093976;28;20444;-73
2022/05/20 10:25:17;;;;;;;7.88;1.60;;;23.70;53.30;;;;;;5080803;28;20048;-73
2022/05/20 10:27:48;;;;;;;2.97;1.50;;;23.60;53.30;;;;;;5073418;28;20044;-72
2022/05/20 10:33:05;;;;;;;3.35;1.58;;;23.60;53.30;;;;;;5117666;27;20043;-72
2022/05/20 10:35:46;;;;;;;4.32;2.08;;;23.70;53.40;;;;;;5093939;28;20135;-73
2022/05/20 10:38:29;;;;;;;5.28;1.83;;;23.90;54.20;;;;;;5093510;28;20132;-74
2022/05/20 10:41:00;;;;;;;4.13;1.90;;;23.60;53.30;;;;;;5082099;28;20052;-74
2022/05/20 10:48:34;;;;;;;2.83;1.50;;;23.60;53.40;;;;;;5073068;28;20059;-74
2022/05/20 10:49:09;;;;;;;;;;;23.60;53.40;;;;;;5106563;28;20056;-74
2022/05/20 10:51:56;;;;;;;3.65;1.60;;;23.60;53.50;;;;;;5072724;28;19960;-73
2022/05/20 10:54:32;;;;;;;3.38;1.60;;;23.50;53.50;;;;;;5071460;28;20083;-74
2022/05/20 10:57:05;;;;;;;4.93;2.10;;;23.60;53.60;;;;;;5107912;27;20489;-73
2022/05/20 10:59:54;;;;;;;6.57;2.20;;;23.60;53.60;;;;;;5106360;28;20048;-73
2022/05/20 11:02:30;;;;;;;2.13;1.50;;;23.60;53.60;;;;;;5084089;28;20061;-73
2022/05/20 11:05:03;;;;;;;3.83;1.52;;;23.60;53.60;;;;;;5072769;28;20493;-73
2022/05/20 11:07:51;;;;;;;2.90;1.60;;;23.60;53.60;;;;;;5073785;28;20128;-73
2022/05/20 11:10:32;;;;;;;3.85;1.60;;;23.60;53.60;;;;;;5078063;28;20135;-73
2022/05/20 11:13:02;;;;;;;3.88;1.75;;;23.60;53.60;;;;;;5093033;28;20404;-73
2022/05/20 11:15:42;;;;;;;3.90;1.90;;;23.60;53.60;;;;;;5092792;28;20056;-73
2022/05/20 11:18:17;;;;;;;3.78;1.80;;;23.60;53.60;;;;;;5127187;27;20054;-73
2022/05/20 11:21:06;;;;;;;3.65;1.55;;;23.60;53.50;;;;;;5092885;28;20063;-73
2022/05/20 11:23:55;;;;;;;3.30;1.83;;;23.60;53.50;;;;;;5092314;28;20058;-73
2022/05/20 11:26:48;;;;;;;4.50;2.00;;;23.60;53.50;;;;;;5107005;27;20083;-73
2022/05/20 11:29:23;;;;;;;3.72;1.63;;;24.50;57.30;;;;;;5055754;28;20420;-73
2022/05/20 11:31:52;;;;;;;3.03;1.55;;;23.60;53.60;;;;;;5072006;28;20059;-73
2022/05/20 11:34:32;;;;;;;3.75;1.77;;;23.60;53.60;;;;;;5072357;28;20052;-73
2022/05/20 11:37:11;;;;;;;3.72;1.50;;;23.70;53.70;;;;;;5072244;28;20091;-73
2022/05/20 11:39:59;;;;;;;5.07;1.90;;;23.70;53.70;;;;;;5072303;28;20080;-73
2022/05/20 11:42:33;;;;;;;4.13;1.83;;;24.80;57.80;;;;;;5073351;28;20059;-73
2022/05/20 11:45:10;;;;;;;4.85;1.80;;;23.60;53.80;;;;;;5072027;28;20556;-73
2022/05/20 11:48:31;;;;;;;3.75;1.70;;;23.60;53.80;;;;;;5071718;28;20068;-71
2022/05/20 11:51:21;;;;;;;6.35;1.67;;;23.60;53.70;;;;;;4999663;28;20079;-71
2022/05/20 11:53:54;;;;;;;5.07;2.10;;;23.70;53.80;;;;;;5069976;28;20048;-72
2022/05/20 11:56:22;;;;;;;5.85;1.80;;;24.60;57.50;;;;;;5092065;28;20413;-71
2022/05/20 11:58:51;;;;;;;6.38;1.80;;;24.50;56.90;;;;;;5091879;28;20400;-71
2022/05/20 12:01:18;;;;;;;4.63;1.60;;;23.60;53.90;;;;;;5091762;28;20056;-71
2022/05/20 12:06:30;;;;;;;4.97;1.60;;;23.70;54.00;;;;;;5126013;27;20481;-72
2022/05/20 12:08:59;;;;;;;4.78;1.85;;;23.70;54.00;;;;;;5092886;28;20044;-72
2022/05/20 12:11:28;;;;;;;3.05;1.80;;;23.60;56.90;;;;;;5089555;28;20122;-72
2022/05/20 12:14:00;;;;;;;7.18;1.88;;;23.70;54.00;;;;;;5125820;27;20430;-72
2022/05/20 12:16:27;;;;;;;5.60;1.95;;;23.70;54.00;;;;;;5091665;28;20052;-72
2022/05/20 12:24:34;;;;;;;3.42;1.58;;;23.60;54.00;;;;;;5125739;27;20044;-71
2022/05/20 12:27:00;;;;;;;5.10;1.60;;;23.60;54.00;;;;;;5086329;28;20057;-71
2022/05/20 12:29:58;;;;;;;4.25;1.63;;;23.60;54.00;;;;;;5079631;28;20385;-70
2022/05/20 12:32:31;;;;;;;5.82;2.00;;;23.70;54.00;;;;;;5090413;28;20052;-72
2022/05/20 12:35:06;;;;;;;3.00;1.65;;;23.60;54.10;;;;;;5091037;28;20047;-72
2022/05/20 12:37:54;;;;;;;6.90;1.65;;;23.60;54.10;;;;;;5091706;28;20405;-72
2022/05/20 12:41:00;;;;;;;3.92;1.70;;;23.60;54.00;;;;;;5090847;28;20048;-72
2022/05/20 12:44:09;;;;;;;4.38;1.70;;;23.60;54.10;;;;;;5090025;28;20090;-72
2022/05/20 12:47:08;;;;;;;4.45;1.45;;;23.60;54.20;;;;;;5058113;28;20058;-72
2022/05/20 12:49:36;;;;;;;2.85;1.50;;;23.60;54.20;;;;;;5078905;28;20532;-72
2022/05/20 12:52:12;;;;;;;2.15;1.40;;;23.60;54.30;;;;;;5091247;28;20105;-72
2022/05/20 12:54:41;;;;;;;3.70;1.60;;;23.60;54.30;;;;;;5090931;28;20138;-71
2022/05/20 12:57:10;;;;;;;6.00;1.70;;;23.60;54.40;;;;;;5125391;27;20075;-72
2022/05/20 12:59:36;;;;;;;3.08;1.30;;;23.60;54.30;;;;;;5088891;28;20066;-72
2022/05/20 13:02:07;;;;;;;2.60;1.40;;;25.20;55.30;;;;;;5091040;28;20143;-72
2022/05/20 13:04:37;;;;;;;4.38;1.65;;;23.60;54.40;;;;;;5091136;28;20485;-72
2022/05/20 13:07:04;;;;;;;3.88;1.50;;;23.60;54.40;;;;;;5090776;28;20131;-72
2022/05/20 13:09:38;;;;;;;3.63;1.30;;;23.50;54.40;;;;;;5089007;28;20075;-72
2022/05/20 13:12:07;;;;;;;2.78;1.60;;;23.60;54.40;;;;;;5090844;28;20117;-72
2022/05/20 13:14:36;;;;;;;2.90;1.40;;;23.50;54.40;;;;;;5089258;28;20405;-73
2022/05/20 13:17:04;;;;;;;6.15;2.35;;;23.50;54.40;;;;;;5090676;28;20150;-72
2022/05/20 13:19:34;;;;;;;3.20;1.63;;;23.50;54.40;;;;;;5090455;28;20126;-72
2022/05/20 13:22:04;;;;;;;5.50;1.67;;;23.50;54.30;;;;;;5090450;28;20542;-72
2022/05/20 13:24:34;;;;;;;3.08;1.50;;;23.50;54.20;;;;;;5090669;28;20087;-72
2022/05/20 13:27:09;;;;;;;5.95;2.03;;;23.50;54.20;;;;;;5090556;28;20059;-72
2022/05/20 13:29:37;;;;;;;1.63;1.30;;;23.50;54.20;;;;;;5090218;28;20427;-71
2022/05/20 13:32:29;;;;;;;2.63;1.20;;;23.40;54.20;;;;;;5089989;28;20054;-72
2022/05/20 13:34:57;;;;;;;3.72;1.50;;;23.40;54.20;;;;;;5076289;28;20083;-72
2022/05/20 13:37:26;;;;;;;3.78;1.50;;;23.30;54.30;;;;;;5090668;28;20055;-72
2022/05/20 13:39:55;;;;;;;4.65;1.45;;;22.60;55.70;;;;;;5124050;28;20134;-71